createdAt,value
2018-11-26T00:03:24.128Z,49.04
2018-11-26T00:08:26.670Z,49.18
2018-11-26T00:13:29.929Z,49.57
2018-11-26T00:18:32.649Z,49.38
2018-11-26T00:23:35.203Z,49.26
2018-11-26T00:28:37.823Z,49.41
2018-11-26T00:33:40.579Z,49.68
2018-11-26T00:38:43.940Z,49.72
2018-11-26T00:43:46.984Z,49.66
2018-11-26T00:48:49.681Z,49.35
2018-11-26T00:53:52.274Z,49.30
2018-11-26T00:58:54.835Z,49.58
2018-11-26T01:03:57.900Z,49.77
2018-11-26T01:09:00.485Z,49.71
2018-11-26T01:14:03.081Z,49.77
2018-11-26T01:19:05.954Z,49.67
2018-11-26T01:24:08.507Z,49.85
2018-11-26T01:29:11.154Z,49.67
2018-11-26T01:34:13.746Z,49.84
2018-11-26T01:39:17.313Z,49.54
2018-11-26T01:44:19.869Z,49.95
2018-11-26T01:49:22.436Z,49.70
2018-11-26T01:54:24.963Z,50.11
2018-11-26T01:59:27.516Z,49.88
2018-11-26T02:04:30.097Z,49.94
2018-11-26T02:09:32.635Z,50.20
2018-11-26T02:14:35.215Z,50.08
2018-11-26T02:19:37.751Z,50.54
2018-11-26T02:24:40.319Z,50.65
2018-11-26T02:29:42.862Z,50.64
2018-11-26T02:34:45.422Z,50.76
2018-11-26T02:39:47.982Z,50.79
2018-11-26T02:44:50.536Z,50.79
2018-11-26T02:49:53.092Z,50.89
2018-11-26T02:54:55.655Z,50.74
2018-11-26T02:59:58.202Z,51.12
2018-11-26T03:05:00.774Z,51.07
2018-11-26T03:10:04.076Z,51.03
2018-11-26T03:15:08.486Z,51.02
2018-11-26T03:20:11.066Z,51.12
2018-11-26T03:25:13.626Z,51.41
2018-11-26T03:30:18.552Z,51.27
2018-11-26T03:35:21.114Z,51.71
2018-11-26T03:40:23.723Z,51.46
2018-11-26T03:45:26.268Z,51.80
2018-11-26T03:50:28.789Z,51.75
2018-11-26T03:55:31.335Z,51.54
2018-11-26T04:00:33.855Z,51.74
2018-11-26T04:05:36.400Z,51.93
2018-11-26T04:10:38.940Z,51.65
2018-11-26T04:15:41.489Z,51.69
2018-11-26T04:20:44.004Z,52.03
2018-11-26T04:25:46.544Z,52.16
2018-11-26T04:30:49.074Z,52.19
2018-11-26T04:35:51.634Z,52.28
2018-11-26T04:40:54.237Z,52.00
2018-11-26T04:45:56.788Z,52.04
2018-11-26T04:50:59.299Z,51.84
2018-11-26T04:56:01.863Z,51.13
2018-11-26T05:01:04.404Z,51.67
2018-11-26T05:06:06.916Z,51.65
2018-11-26T05:11:09.524Z,51.12
2018-11-26T05:16:12.045Z,51.56
2018-11-26T05:21:14.570Z,51.50
2018-11-26T05:26:17.214Z,51.28
2018-11-26T05:31:19.744Z,50.99
2018-11-26T05:36:22.301Z,51.45
2018-11-26T05:41:24.799Z,51.16
2018-11-26T05:46:27.330Z,51.48
2018-11-26T05:51:29.856Z,51.03
2018-11-26T05:56:38.968Z,51.37
2018-11-26T06:01:41.559Z,51.09
2018-11-26T06:06:44.111Z,50.92
2018-11-26T06:11:46.654Z,50.85
2018-11-26T06:16:53.728Z,51.02
2018-11-26T06:21:51.803Z,51.14
2018-11-26T06:26:54.342Z,51.28
2018-11-26T06:31:56.874Z,51.41
2018-11-26T06:36:59.394Z,51.41
2018-11-26T06:42:01.916Z,51.27
2018-11-26T06:47:04.520Z,51.45
2018-11-26T06:52:07.073Z,51.34
2018-11-26T06:57:09.638Z,51.30
2018-11-26T07:02:12.226Z,51.17
2018-11-26T07:07:14.778Z,50.97
2018-11-26T07:12:17.347Z,51.33
2018-11-26T07:17:19.902Z,51.41
2018-11-26T07:22:22.445Z,51.46
2018-11-26T07:27:24.994Z,51.25
2018-11-26T07:32:27.551Z,51.48
2018-11-26T07:37:30.144Z,51.66
2018-11-26T07:42:32.882Z,47.30
2018-11-26T07:47:35.725Z,43.50
2018-11-26T07:52:38.534Z,46.05
2018-11-26T07:57:41.415Z,45.19
2018-11-26T08:02:44.119Z,43.38
2018-11-26T08:07:46.764Z,39.45
2018-11-26T08:12:49.841Z,40.03
2018-11-26T08:17:52.409Z,39.62
2018-11-26T08:22:54.956Z,38.64
2018-11-26T08:27:57.496Z,38.56
2018-11-26T08:33:00.799Z,39.92
2018-11-26T08:38:13.523Z,40.27
2018-11-26T08:43:20.528Z,41.27
2018-11-26T08:48:31.232Z,41.91
2018-11-26T08:53:33.787Z,42.53
2018-11-26T08:58:36.315Z,43.21
2018-11-26T09:03:44.194Z,43.20
2018-11-26T09:08:46.729Z,43.59
2018-11-26T09:13:49.290Z,44.16
2018-11-26T09:18:51.842Z,44.95
2018-11-26T09:23:54.380Z,45.78
2018-11-26T09:28:56.919Z,46.10
2018-11-26T09:33:59.464Z,46.04
2018-11-26T09:39:02.042Z,46.48
2018-11-26T09:44:04.575Z,46.40
2018-11-26T09:49:07.138Z,46.46
2018-11-26T09:54:09.689Z,46.61
2018-11-26T09:59:12.268Z,46.55
2018-11-26T10:04:14.814Z,46.63
2018-11-26T10:09:17.344Z,45.91
2018-11-26T10:14:19.883Z,45.92
2018-11-26T10:19:22.922Z,45.82
2018-11-26T10:24:25.517Z,44.22
2018-11-26T10:29:28.078Z,45.03
2018-11-26T14:29:35.825Z,43.11
2018-11-26T14:34:38.266Z,44.13
2018-11-26T14:44:48.307Z,44.55
2018-11-26T14:49:50.811Z,44.63
2018-11-26T14:54:53.221Z,45.09
2018-11-26T14:59:55.723Z,45.34
2018-11-26T15:04:58.155Z,45.61
2018-11-26T15:10:00.575Z,45.31
2018-11-26T15:15:03.125Z,46.00
2018-11-26T15:20:07.070Z,45.59
2018-11-26T15:34:41.909Z,46.26
2018-11-26T15:39:45.056Z,46.84
2018-11-26T15:44:47.749Z,46.76
2018-11-26T15:49:50.199Z,46.88
2018-11-26T15:54:52.886Z,47.18
2018-11-26T15:59:56.268Z,47.01
2018-11-26T16:04:58.898Z,46.79
2018-11-26T16:10:01.324Z,46.84
2018-11-26T16:15:04.102Z,47.13
2018-11-26T16:20:12.249Z,47.55
2018-11-26T16:25:15.417Z,47.55
2018-11-26T16:30:18.409Z,47.70
2018-11-26T16:35:36.617Z,47.63
2018-11-26T16:40:39.056Z,47.32
2018-11-26T16:45:41.513Z,47.50
2018-11-26T16:50:43.971Z,47.31
2018-11-26T16:55:46.820Z,47.09
2018-11-26T17:00:49.274Z,47.22
2018-11-26T17:05:51.721Z,46.34
2018-11-26T17:10:54.157Z,45.85
2018-11-26T17:15:56.819Z,45.63
2018-11-26T17:20:59.287Z,45.44
2018-11-26T17:26:02.245Z,44.60
2018-11-26T17:31:05.005Z,45.19
2018-11-26T17:36:07.432Z,45.33
2018-11-26T17:41:09.846Z,45.29
2018-11-26T17:46:12.265Z,45.45
2018-11-26T17:51:14.778Z,45.35
2018-11-26T17:56:17.231Z,45.37
2018-11-26T18:01:26.613Z,45.61
2018-11-26T18:06:29.053Z,45.60
2018-11-26T18:11:31.469Z,45.66
2018-11-26T18:16:33.882Z,45.42
2018-11-26T18:21:36.835Z,45.47
2018-11-26T18:26:39.261Z,45.01
2018-11-26T18:31:41.686Z,45.13
2018-11-26T18:36:44.124Z,45.36
2018-11-26T18:41:46.577Z,45.62
2018-11-26T18:46:49.063Z,45.59
2018-11-26T18:51:51.509Z,45.85
2018-11-26T18:56:53.946Z,45.36
2018-11-26T19:01:56.390Z,45.28
2018-11-26T19:06:58.834Z,45.46
2018-11-26T19:12:04.118Z,45.63
2018-11-26T19:17:03.810Z,45.44
2018-11-26T19:22:06.246Z,45.66
2018-11-26T19:27:08.719Z,45.91
2018-11-26T19:35:07.102Z,45.85
2018-11-26T19:40:12.042Z,46.11
2018-11-26T19:45:15.171Z,45.88
2018-11-26T19:50:18.237Z,45.39
2018-11-26T19:55:23.670Z,45.99
2018-11-26T20:00:28.270Z,45.77
2018-11-26T20:05:43.178Z,45.59
2018-11-26T20:10:46.512Z,45.97
2018-11-26T20:15:50.308Z,45.98
2018-11-26T20:20:53.654Z,46.26
2018-11-26T20:31:00.014Z,46.46
2018-11-26T20:36:03.394Z,46.65
2018-11-26T20:41:07.867Z,46.86
2018-11-26T20:46:11.237Z,46.96
2018-11-26T20:51:14.565Z,47.36
2018-11-26T20:56:18.469Z,47.13
2018-11-26T21:01:21.779Z,47.36
2018-11-26T21:06:25.122Z,47.00
2018-11-26T21:11:28.495Z,47.29
2018-11-26T21:16:31.841Z,47.33
2018-11-26T21:21:35.153Z,47.25
2018-11-26T21:26:38.471Z,47.59
2018-11-26T21:31:41.790Z,47.99
2018-11-26T21:36:45.124Z,47.87
2018-11-26T21:41:48.450Z,48.05
2018-11-26T21:46:53.029Z,48.09
2018-11-26T21:51:55.171Z,48.58
2018-11-26T21:56:58.491Z,48.41
2018-11-26T22:02:01.822Z,48.48
2018-11-26T22:07:05.390Z,48.24
2018-11-26T22:12:08.730Z,48.48
2018-11-26T22:17:12.050Z,48.18
2018-11-26T22:22:15.350Z,48.47
2018-11-26T22:27:18.686Z,48.65
2018-11-26T22:32:22.007Z,48.61
2018-11-26T22:37:25.328Z,48.89
2018-11-26T22:42:28.639Z,48.47
2018-11-26T22:47:31.958Z,48.59
2018-11-26T22:52:35.304Z,48.53
2018-11-26T22:57:38.652Z,48.60
